Time;durP1;ratioP1;P1;durP2;ratioP2;P2;SDS_P1;SDS_P2;PMS_P1;PMS_P2;Temp;Humidity;BMP_temperature;BMP_pressure;BME280_temperature;BME280_humidity;BME280_pressure;Samples;Min_cycle;Max_cycle;Signal;HPM_P1;HPM_P2
2023/03/09 00:01:49;;;;;;;1999.90;999.90;;;;;;;10.85;100.00;96586.44;5073516;28;20016;-74
2023/03/09 00:04:16;;;;;;;1999.90;999.90;;;;;;;10.87;100.00;96578.72;5069269;28;20388;-75
2023/03/09 00:06:42;;;;;;;1999.90;999.90;;;;;;;10.86;100.00;96574.38;5070510;28;20144;-75
2023/03/09 00:09:07;;;;;;;1999.90;999.90;;;;;;;10.81;100.00;96577.31;5070828;28;20119;-74
2023/03/09 00:11:33;;;;;;;1999.90;999.90;;;;;;;10.79;100.00;96580.38;5071178;28;20088;-77
2023/03/09 00:13:58;;;;;;;1999.90;999.90;;;;;;;10.80;100.00;96584.72;5075703;28;20040;-75
2023/03/09 00:16:26;;;;;;;1999.90;999.90;;;;;;;10.85;100.00;96586.44;5110328;28;20030;-75
2023/03/09 00:18:57;;;;;;;1999.90;999.90;;;;;;;10.85;100.00;96581.78;5111156;28;20035;-80
2023/03/09 00:21:40;;;;;;;1999.90;999.90;;;;;;;10.85;100.00;96589.19;5111310;28;20028;-76
2023/03/09 00:24:16;;;;;;;1999.90;999.90;;;;;;;10.85;100.00;96586.44;5110768;28;20044;-75
2023/03/09 00:26:49;;;;;;;;;;;;;;;10.86;100.00;96588.88;5111529;28;20122;-76
2023/03/09 00:29:14;;;;;;;1999.90;999.90;;;;;;;10.78;100.00;96576.03;5109845;28;20272;-75
2023/03/09 00:31:41;;;;;;;1999.90;999.90;;;;;;;10.81;100.00;96583.56;5111762;28;20081;-76
2023/03/09 00:34:07;;;;;;;1999.90;999.90;;;;;;;10.83;100.00;96588.72;5112260;28;20496;-75
2023/03/09 00:36:33;;;;;;;1999.90;999.90;;;;;;;10.86;100.00;96585.31;5109836;28;20038;-75
2023/03/09 00:38:58;;;;;;;1999.90;999.90;;;;;;;10.92;100.00;96581.25;5111062;28;20430;-74
2023/03/09 00:41:30;;;;;;;1999.90;999.90;;;;;;;10.92;100.00;96592.22;5109726;28;20031;-76
2023/03/09 00:43:56;;;;;;;1999.90;999.90;;;;;;;10.82;100.00;96576.16;5111120;28;20020;-77
2023/03/09 00:46:21;;;;;;;1999.90;999.90;;;;;;;10.88;100.00;96589.31;5111018;28;20122;-75
2023/03/09 00:48:47;;;;;;;1999.90;999.90;;;;;;;10.83;100.00;96583.25;5111140;28;20087;-75
2023/03/09 00:51:12;;;;;;;1999.90;999.90;;;;;;;10.86;100.00;96590.78;5111242;28;20055;-75
2023/03/09 00:53:39;;;;;;;1999.90;999.90;;;;;;;10.84;100.00;96580.16;5111108;28;20020;-75
2023/03/09 00:56:14;;;;;;;1999.90;999.90;;;;;;;10.92;100.00;96581.25;5111015;28;20084;-75
2023/03/09 00:58:39;;;;;;;1999.90;999.90;;;;;;;10.89;100.00;96584.66;5110911;28;20480;-75
2023/03/09 01:01:10;;;;;;;1999.90;999.90;;;;;;;10.77;100.00;96568.16;5111161;28;20031;-78
2023/03/09 01:03:36;;;;;;;1999.90;999.90;;;;;;;10.91;100.00;96596.06;5110720;28;20430;-75
2023/03/09 01:06:01;;;;;;;1999.90;999.90;;;;;;;10.92;100.00;96578.53;5110620;28;20049;-75
2023/03/09 01:08:27;;;;;;;1999.90;999.90;;;;;;;10.91;100.00;96571.44;5111482;28;20050;-75
2023/03/09 01:10:52;;;;;;;1999.90;999.90;;;;;;;10.86;100.00;96566.97;5114485;28;20115;-75
2023/03/09 01:13:18;;;;;;;1999.90;999.90;;;;;;;10.93;100.00;96569.19;5113243;28;20504;-75
2023/03/09 01:15:43;;;;;;;1999.90;999.90;;;;;;;10.98;100.00;96572.53;5114727;28;20027;-73
2023/03/09 01:18:09;;;;;;;1999.90;999.90;;;;;;;10.99;100.00;96576.06;5114719;28;20073;-75
2023/03/09 01:20:34;;;;;;;1999.90;999.90;;;;;;;10.99;100.00;96570.59;5114516;28;20031;-76
2023/03/09 01:23:00;;;;;;;1999.90;999.90;;;;;;;10.93;100.00;96571.94;5114779;28;20023;-75
2023/03/09 01:25:27;;;;;;;1999.90;999.90;;;;;;;10.94;100.00;96570.78;5114328;28;20504;-75
2023/03/09 01:27:52;;;;;;;1999.90;999.90;;;;;;;10.86;100.00;96555.25;5114586;28;20023;-73
2023/03/09 01:30:18;;;;;;;1999.90;999.90;;;;;;;10.98;100.00;96569.00;5114568;28;20023;-76
2023/03/09 01:32:43;;;;;;;1999.90;999.90;;;;;;;10.98;100.00;96574.47;5113611;28;20369;-76
2023/03/09 01:35:09;;;;;;;1999.90;999.90;;;;;;;11.05;100.00;96569.28;5114554;28;20088;-73
2023/03/09 01:37:35;;;;;;;1999.90;999.90;;;;;;;11.00;100.00;96567.53;5114212;28;20816;-75
2023/03/09 01:40:00;;;;;;;1999.90;999.90;;;;;;;10.94;100.00;96563.38;5114932;28;20035;-76
2023/03/09 01:42:27;;;;;;;1999.90;999.90;;;;;;;11.00;100.00;96564.78;5114714;28;20076;-75
2023/03/09 01:45:11;;;;;;;1999.90;999.90;;;;;;;10.92;100.00;96568.38;5114909;28;20108;-74
2023/03/09 01:47:36;;;;;;;1999.90;999.90;;;;;;;10.91;100.00;96566.78;5113610;28;20028;-76
2023/03/09 01:50:02;;;;;;;1999.90;999.90;;;;;;;10.98;100.00;96580.75;5113886;28;20034;-74
2023/03/09 01:52:32;;;;;;;1999.90;999.90;;;;;;;10.96;100.00;96576.75;5112643;28;20062;-75
2023/03/09 01:55:05;;;;;;;1999.90;999.90;;;;;;;10.87;100.00;96573.25;5114055;27;20062;-74
2023/03/09 01:57:43;;;;;;;1999.90;999.90;;;;;;;10.86;100.00;96566.19;5114203;28;20051;-75
2023/03/09 02:00:11;;;;;;;1999.90;999.90;;;;;;;10.84;100.00;96568.44;5114310;28;20380;-74
2023/03/09 02:02:40;;;;;;;1999.90;999.90;;;;;;;10.74;100.00;96562.19;5108937;28;20055;-75
2023/03/09 02:05:10;;;;;;;1999.90;999.90;;;;;;;10.75;100.00;96573.94;5079085;28;20557;-75
2023/03/09 02:07:39;;;;;;;1999.90;999.90;;;;;;;10.68;100.00;96544.38;5101337;28;20032;-74
2023/03/09 02:10:18;;;;;;;1999.90;999.90;;;;;;;10.61;100.00;96555.06;5096009;28;20032;-75
2023/03/09 02:12:47;;;;;;;1999.90;999.90;;;;;;;10.56;100.00;96554.44;5073691;28;20131;-74
2023/03/09 02:15:12;;;;;;;1999.90;999.90;;;;;;;10.58;100.00;96561.19;5072388;28;20020;-75
2023/03/09 02:17:38;;;;;;;1999.90;999.90;;;;;;;10.60;100.00;96558.91;5070964;28;20500;-77
2023/03/09 02:20:28;;;;;;;1999.90;999.90;;;;;;;10.65;100.00;96566.16;5069625;28;20150;-74
2023/03/09 02:22:54;;;;;;;1999.90;999.90;;;;;;;10.53;100.00;96560.56;5073747;28;20039;-75
2023/03/09 02:25:40;;;;;;;1999.90;999.90;;;;;;;10.52;100.00;96548.84;5090998;28;20140;-75
2023/03/09 02:28:07;;;;;;;1999.90;999.90;;;;;;;10.52;100.00;96557.03;5090917;28;20578;-76
2023/03/09 02:30:37;;;;;;;1999.90;999.90;;;;;;;10.55;100.00;96558.31;5092497;28;20031;-74
2023/03/09 02:33:09;;;;;;;1999.90;999.90;;;;;;;10.55;100.00;96552.84;5093023;28;20028;-77
2023/03/09 02:35:35;;;;;;;1999.90;999.90;;;;;;;10.55;100.00;96553.66;5092442;28;20106;-76
2023/03/09 02:38:00;;;;;;;1999.90;999.90;;;;;;;10.54;100.00;96548.50;5092212;28;20496;-76
2023/03/09 02:40:30;;;;;;;1999.90;999.90;;;;;;;10.49;100.00;96541.31;5091976;28;20496;-76
2023/03/09 02:42:56;;;;;;;1999.90;999.90;;;;;;;10.46;100.00;96535.69;5092169;28;20035;-76
2023/03/09 02:45:21;;;;;;;1999.90;999.90;;;;;;;10.51;100.00;96530.03;5092166;28;20024;-76
2023/03/09 02:47:48;;;;;;;1999.90;999.90;;;;;;;10.50;100.00;96540.16;5092840;28;20024;-74
2023/03/09 02:50:14;;;;;;;1999.90;999.90;;;;;;;10.53;100.00;96523.09;5093133;28;20123;-76
2023/03/09 02:52:40;;;;;;;1999.90;999.90;;;;;;;10.42;100.00;96521.88;5094877;28;20443;-83
2023/03/09 02:55:06;;;;;;;1999.90;999.90;;;;;;;10.40;100.00;96513.19;5098870;28;20024;-78
2023/03/09 02:57:31;;;;;;;1999.90;999.90;;;;;;;10.40;100.00;96521.38;5099109;28;20032;-76
2023/03/09 02:59:57;;;;;;;1999.90;999.90;;;;;;;10.44;100.00;96507.84;5099897;28;20036;-77
2023/03/09 03:02:22;;;;;;;1999.90;999.90;;;;;;;10.31;100.00;96495.22;5113477;28;20035;-81
2023/03/09 03:04:47;;;;;;;1999.90;999.90;;;;;;;10.31;100.00;96484.28;5117572;28;20023;-76
2023/03/09 03:07:13;;;;;;;1999.90;999.90;;;;;;;10.34;100.00;96497.31;5120193;28;20043;-77
2023/03/09 03:09:38;;;;;;;1999.90;999.90;;;;;;;10.31;100.00;96503.41;5122404;28;20560;-78
2023/03/09 03:12:04;;;;;;;1999.90;999.90;;;;;;;10.41;100.00;96500.31;5118265;28;20023;-74
2023/03/09 03:14:29;;;;;;;1999.90;999.90;;;;;;;10.20;100.00;96468.28;5108962;28;20554;-74
2023/03/09 03:16:55;;;;;;;1999.90;999.90;;;;;;;10.29;100.00;96481.91;5092497;28;20058;-77
2023/03/09 03:19:20;;;;;;;1999.90;999.90;;;;;;;10.39;100.00;96478.00;5091629;28;20032;-74
2023/03/09 03:21:48;;;;;;;1999.90;999.90;;;;;;;10.42;100.00;96486.34;5091737;28;20058;-74
2023/03/09 03:24:14;;;;;;;1999.90;999.90;;;;;;;10.39;100.00;96492.47;5091906;28;20104;-77
2023/03/09 03:26:39;;;;;;;1999.90;999.90;;;;;;;10.30;100.00;96467.13;5091890;28;20426;-75
2023/03/09 03:29:04;;;;;;;1999.90;999.90;;;;;;;10.43;100.00;96489.88;5091560;28;20081;-76
2023/03/09 03:31:30;;;;;;;1999.90;999.90;;;;;;;10.41;100.00;96498.41;5091451;28;20445;-76
2023/03/09 03:33:55;;;;;;;1999.90;999.90;;;;;;;10.40;100.00;96504.19;5092039;28;20031;-75
2023/03/09 03:36:21;;;;;;;1999.90;999.90;;;;;;;10.38;100.00;96506.44;5091633;28;20080;-76
2023/03/09 03:38:46;;;;;;;1999.90;999.90;;;;;;;10.45;100.00;96506.75;5091874;28;20024;-75
2023/03/09 03:41:11;;;;;;;1999.90;999.90;;;;;;;10.41;100.00;96503.06;5091213;28;20373;-76
2023/03/09 03:43:37;;;;;;;1999.90;999.90;;;;;;;10.38;100.00;96507.25;5091350;28;20073;-74
2023/03/09 03:46:02;;;;;;;1999.90;999.90;;;;;;;10.48;100.00;96512.34;5091387;28;20035;-76
2023/03/09 03:48:28;;;;;;;1999.90;999.90;;;;;;;10.46;100.00;96508.34;5091565;28;20032;-79
2023/03/09 03:50:53;;;;;;;1999.90;999.90;;;;;;;10.46;100.00;96506.41;5091062;28;20116;-76
2023/03/09 03:53:18;;;;;;;1999.90;999.90;;;;;;;10.41;100.00;96503.84;5091350;28;20534;-76
2023/03/09 03:55:44;;;;;;;1999.90;999.90;;;;;;;10.48;100.00;96508.81;5090125;28;20020;-75
2023/03/09 03:58:09;;;;;;;1999.90;999.90;;;;;;;10.45;100.00;96504.81;5091047;28;20030;-76
2023/03/09 04:00:35;;;;;;;1999.90;999.90;;;;;;;10.43;100.00;96520.72;5091533;28;20024;-77
2023/03/09 04:03:00;;;;;;;1999.90;999.90;;;;;;;10.33;100.00;96504.72;5092046;28;20071;-78
2023/03/09 04:05:26;;;;;;;1999.90;999.90;;;;;;;10.25;100.00;96511.00;5091557;28;20042;-75
2023/03/09 04:07:51;;;;;;;1999.90;999.90;;;;;;;10.31;100.00;96506.97;5094197;28;20024;-76
2023/03/09 04:10:18;;;;;;;1999.90;999.90;;;;;;;10.30;100.00;96520.97;5091816;28;20447;-75
2023/03/09 04:12:43;;;;;;;1999.90;999.90;;;;;;;10.25;100.00;96524.66;5091351;28;20097;-75
2023/03/09 04:15:09;;;;;;;1999.90;999.90;;;;;;;10.14;100.00;96510.59;5091596;28;20020;-75
2023/03/09 04:17:34;;;;;;;1999.90;999.90;;;;;;;10.19;100.00;96504.13;5092887;28;20480;-77
2023/03/09 04:19:59;;;;;;;1999.90;999.90;;;;;;;10.27;100.00;96522.44;5093616;28;20039;-76
2023/03/09 04:22:25;;;;;;;1999.90;999.90;;;;;;;10.24;100.00;96523.09;5092248;28;20341;-76
2023/03/09 04:24:51;;;;;;;1999.90;999.90;;;;;;;10.21;100.00;96502.66;5085062;28;20075;-76
2023/03/09 04:27:16;;;;;;;1999.90;999.90;;;;;;;10.10;100.00;96497.88;5068591;28;20472;-76
2023/03/09 04:29:41;;;;;;;1999.90;999.90;;;;;;;10.08;100.00;96495.47;5070106;28;20032;-75
2023/03/09 04:32:07;;;;;;;1999.90;999.90;;;;;;;10.13;100.00;96510.88;5088517;28;20061;-75
2023/03/09 04:34:32;;;;;;;1999.90;999.90;;;;;;;10.09;100.00;96501.72;5091002;28;20106;-75
2023/03/09 04:36:58;;;;;;;1999.90;999.90;;;;;;;10.04;100.00;96507.38;5089927;28;20105;-75
2023/03/09 04:39:23;;;;;;;1999.90;999.90;;;;;;;10.09;100.00;96512.66;5090053;28;20047;-75
2023/03/09 04:41:49;;;;;;;1999.90;999.90;;;;;;;10.02;100.00;96504.97;5090179;28;20032;-75
2023/03/09 04:44:14;;;;;;;1999.90;999.90;;;;;;;9.99;100.00;96499.38;5070890;28;20028;-76
2023/03/09 04:46:39;;;;;;;1999.90;999.90;;;;;;;9.94;100.00;96497.63;5069744;28;20074;-75
2023/03/09 04:49:05;;;;;;;1999.90;999.90;;;;;;;9.83;100.00;96479.19;5087041;28;20379;-75
2023/03/09 04:51:30;;;;;;;1999.90;999.90;;;;;;;9.90;100.00;96488.47;5110430;28;20027;-76
2023/03/09 04:53:56;;;;;;;1999.90;999.90;;;;;;;9.91;100.00;96476.41;5110236;28;20028;-75
2023/03/09 04:56:21;;;;;;;1999.90;999.90;;;;;;;9.90;100.00;96446.72;5110679;28;20080;-74
2023/03/09 04:58:47;;;;;;;1999.90;999.90;;;;;;;9.79;100.00;96407.22;5111318;27;20068;-75
2023/03/09 05:01:13;;;;;;;1999.90;999.90;;;;;;;9.68;100.00;96350.25;5112676;28;20100;-75
2023/03/09 05:03:39;;;;;;;1999.90;999.90;;;;;;;9.57;100.00;96329.94;5113027;28;20077;-74
2023/03/09 05:06:04;;;;;;;1999.90;999.90;;;;;;;9.56;100.00;96409.41;5111380;28;20027;-75
2023/03/09 05:08:29;;;;;;;1999.90;999.90;;;;;;;9.55;100.00;96424.97;5108785;28;20060;-77
2023/03/09 05:10:55;;;;;;;1999.90;999.90;;;;;;;9.68;100.00;96425.91;5110191;28;20023;-75
2023/03/09 05:13:20;;;;;;;1999.90;999.90;;;;;;;9.75;100.00;96436.31;5109870;28;20118;-75
2023/03/09 05:15:46;;;;;;;1999.90;999.90;;;;;;;9.73;100.00;96422.19;5108762;28;20476;-76
2023/03/09 05:18:11;;;;;;;1999.90;999.90;;;;;;;9.75;100.00;96423.47;5110534;28;20058;-76
2023/03/09 05:20:37;;;;;;;1999.90;999.90;;;;;;;9.86;100.00;96423.91;5093028;28;20035;-76
2023/03/09 05:23:03;;;;;;;1999.90;999.90;;;;;;;9.90;100.00;96419.41;5089492;28;20028;-74
2023/03/09 05:25:30;;;;;;;1999.90;999.90;;;;;;;9.81;100.00;96407.69;5089660;28;20039;-75
2023/03/09 05:27:55;;;;;;;1999.90;999.90;;;;;;;9.86;100.00;96408.34;5089865;28;20039;-74
2023/03/09 05:30:21;;;;;;;1999.90;999.90;;;;;;;9.89;100.00;96415.06;5095391;28;20384;-79
2023/03/09 05:32:48;;;;;;;1999.90;999.90;;;;;;;9.93;100.00;96418.75;5108975;28;20019;-76
2023/03/09 05:35:14;;;;;;;1999.90;999.90;;;;;;;9.97;100.00;96425.13;5108049;28;20028;-75
2023/03/09 05:37:39;;;;;;;1999.90;999.90;;;;;;;10.00;100.00;96424.47;5110075;28;20885;-76
2023/03/09 05:40:05;;;;;;;1999.90;999.90;;;;;;;10.01;100.00;96424.16;5109509;28;20028;-74
2023/03/09 05:42:31;;;;;;;1999.90;999.90;;;;;;;9.98;100.00;96415.81;5097498;28;20032;-77
2023/03/09 05:44:57;;;;;;;1999.90;999.90;;;;;;;9.96;100.00;96418.09;5080486;28;20009;-76
2023/03/09 05:47:23;;;;;;;1999.90;999.90;;;;;;;10.02;100.00;96416.78;5069360;28;20567;-77
2023/03/09 05:49:49;;;;;;;1999.90;999.90;;;;;;;10.01;100.00;96420.63;5103855;28;20058;-76
2023/03/09 05:52:15;;;;;;;1999.90;999.90;;;;;;;10.05;100.00;96421.56;5110608;28;20100;-76
2023/03/09 05:54:40;;;;;;;1999.90;999.90;;;;;;;10.05;100.00;96413.38;5113550;28;20023;-78
2023/03/09 05:57:06;;;;;;;1999.90;999.90;;;;;;;10.09;100.00;96427.97;5112484;28;20462;-82
2023/03/09 05:59:31;;;;;;;1999.90;999.90;;;;;;;10.14;100.00;96431.34;5113815;28;20076;-81
2023/03/09 06:01:56;;;;;;;1999.90;999.90;;;;;;;10.08;100.00;96421.72;5099966;28;20122;-79
2023/03/09 06:04:22;;;;;;;1999.90;999.90;;;;;;;10.12;100.00;96433.56;5094380;28;20100;-76
2023/03/09 06:06:47;;;;;;;1999.90;999.90;;;;;;;10.16;100.00;96439.22;5099943;28;20031;-75
2023/03/09 06:09:13;;;;;;;1999.90;999.90;;;;;;;10.15;100.00;96422.00;5100798;28;20011;-75
2023/03/09 06:11:38;;;;;;;1999.90;999.90;;;;;;;10.20;100.00;96438.22;5112042;28;20027;-76
2023/03/09 06:14:04;;;;;;;1999.90;999.90;;;;;;;10.18;100.00;96421.34;5094428;28;20036;-76
2023/03/09 06:16:29;;;;;;;1999.90;999.90;;;;;;;10.18;100.00;96429.56;5091724;28;20070;-75
2023/03/09 06:18:55;;;;;;;1999.90;999.90;;;;;;;10.15;100.00;96423.94;5106671;28;20036;-76
2023/03/09 06:21:21;;;;;;;1999.90;999.90;;;;;;;10.23;100.00;96431.31;5096428;28;20429;-77
2023/03/09 06:23:46;;;;;;;1999.90;999.90;;;;;;;10.28;100.00;96442.03;5091631;28;20063;-75
2023/03/09 06:26:13;;;;;;;1999.90;999.90;;;;;;;10.27;100.00;96440.44;5093277;28;20032;-76
2023/03/09 06:28:39;;;;;;;1999.90;999.90;;;;;;;10.26;100.00;96441.56;5094657;28;20020;-75
2023/03/09 06:31:16;;;;;;;1999.90;999.90;;;;;;;10.24;100.00;96440.31;5092769;28;20493;-75
2023/03/09 06:33:44;;;;;;;1999.90;999.90;;;;;;;10.26;100.00;96444.31;5092387;28;20062;-76
2023/03/09 06:36:12;;;;;;;1999.90;999.90;;;;;;;10.33;100.00;96452.78;5090287;28;20516;-75
2023/03/09 06:38:37;;;;;;;1999.90;999.90;;;;;;;10.29;100.00;96426.44;5091511;28;20405;-75
2023/03/09 06:41:03;;;;;;;1999.90;999.90;;;;;;;10.44;100.00;96450.47;5091627;28;20030;-76
2023/03/09 06:43:28;;;;;;;1999.90;999.90;;;;;;;10.48;100.00;96452.22;5091471;28;20028;-75
2023/03/09 06:45:55;;;;;;;1999.90;999.90;;;;;;;10.49;100.00;96453.81;5090776;28;20067;-75
2023/03/09 06:48:20;;;;;;;1999.90;999.90;;;;;;;10.47;100.00;96466.19;5090802;28;20031;-75
2023/03/09 06:50:48;;;;;;;1999.90;999.90;;;;;;;10.48;100.00;96462.34;5091295;28;20051;-75
2023/03/09 06:53:13;;;;;;;1999.90;999.90;;;;;;;10.59;100.00;96474.47;5091029;28;20031;-75
2023/03/09 06:55:39;;;;;;;1999.90;999.90;;;;;;;10.62;100.00;96480.09;5091123;28;20020;-75
2023/03/09 06:58:05;;;;;;;1999.90;999.90;;;;;;;10.61;100.00;96472.22;5090968;28;20032;-75
2023/03/09 07:00:31;;;;;;;1999.90;999.90;;;;;;;10.66;100.00;96472.03;5089816;28;20020;-76
2023/03/09 07:02:57;;;;;;;1999.90;999.90;;;;;;;10.63;100.00;96476.22;5090631;28;20028;-76
2023/03/09 07:05:22;;;;;;;1999.90;999.90;;;;;;;10.62;100.00;96480.09;5091294;28;20369;-74
2023/03/09 07:07:48;;;;;;;1999.90;999.90;;;;;;;10.65;100.00;96487.63;5088919;28;20031;-75
2023/03/09 07:10:13;;;;;;;1999.90;999.90;;;;;;;10.60;100.00;96489.75;5090989;28;20040;-75
2023/03/09 07:12:39;;;;;;;1999.90;999.90;;;;;;;10.47;100.00;96477.94;5090285;28;20067;-74
2023/03/09 07:15:05;;;;;;;1999.90;999.90;;;;;;;10.36;100.00;96484.94;5091123;28;20501;-75
2023/03/09 07:17:31;;;;;;;1999.90;999.90;;;;;;;10.46;100.00;96483.75;5091202;28;20051;-76
2023/03/09 07:19:59;;;;;;;1999.90;999.90;;;;;;;10.54;100.00;96485.63;5090936;28;20480;-75
2023/03/09 07:22:25;;;;;;;1999.90;999.90;;;;;;;10.42;100.00;96480.88;5090851;28;20035;-75
2023/03/09 07:24:50;;;;;;;1999.90;999.90;;;;;;;10.46;100.00;96495.47;5090946;28;20024;-75
2023/03/09 07:27:18;;;;;;;1999.90;999.90;;;;;;;10.54;100.00;96499.28;5089382;28;20492;-76
2023/03/09 07:29:44;;;;;;;1999.90;999.90;;;;;;;10.49;100.00;96494.81;5089922;28;20132;-75
2023/03/09 07:32:10;;;;;;;1999.90;999.90;;;;;;;10.59;100.00;96499.09;5089716;28;20136;-76
2023/03/09 07:34:35;;;;;;;1999.90;999.90;;;;;;;10.49;100.00;96500.28;5090330;28;20032;-75
2023/03/09 07:37:00;;;;;;;1999.90;999.90;;;;;;;10.49;100.00;96494.81;5090049;28;20065;-77
2023/03/09 07:39:28;;;;;;;1999.90;999.90;;;;;;;10.51;100.00;96506.22;5089795;28;20029;-76
2023/03/09 07:41:53;;;;;;;1999.90;999.90;;;;;;;10.55;100.00;96504.44;5088375;28;20530;-75
2023/03/09 07:44:19;;;;;;;1999.90;999.90;;;;;;;10.59;100.00;96510.81;5089826;28;20032;-75
2023/03/09 07:46:44;;;;;;;1999.90;999.90;;;;;;;10.73;100.00;96514.13;5090168;28;20056;-76
2023/03/09 07:49:10;;;;;;;1999.90;999.90;;;;;;;10.72;100.00;96518.00;5091034;28;20473;-73
2023/03/09 07:51:37;;;;;;;1999.90;999.90;;;;;;;10.81;100.00;96519.88;5091134;28;20036;-74
2023/03/09 07:54:05;;;;;;;1999.90;999.90;;;;;;;10.84;100.00;96521.94;5088440;28;20040;-75
2023/03/09 07:56:31;;;;;;;1999.90;999.90;;;;;;;10.96;100.00;96519.28;5091176;28;20040;-75
2023/03/09 07:58:56;;;;;;;1999.90;999.90;;;;;;;11.02;100.00;96512.47;5090671;28;20031;-75
2023/03/09 08:01:21;;;;;;;1999.90;999.90;;;;;;;11.16;100.00;96518.47;5090733;28;20500;-75
2023/03/09 08:03:47;;;;;;;1999.90;999.90;;;;;;;11.21;100.00;96529.25;5090493;28;20024;-76
2023/03/09 08:06:12;;;;;;;1999.90;999.90;;;;;;;11.24;100.00;96528.56;5090375;28;20605;-75
2023/03/09 08:08:38;;;;;;;1999.90;999.90;;;;;;;11.33;100.00;96537.50;5087657;28;20024;-75
2023/03/09 08:11:04;;;;;;;1999.90;999.90;;;;;;;11.39;100.00;96540.84;5090628;28;20042;-76
2023/03/09 08:13:30;;;;;;;1999.90;999.90;;;;;;;11.66;100.00;96534.78;5090042;28;20040;-75
2023/03/09 08:16:00;;;;;;;1999.90;999.90;;;;;;;11.75;100.00;96541.00;5089893;28;20109;-75
2023/03/09 08:18:25;;;;;;;1999.90;999.90;;;;;;;11.80;100.00;96541.63;5089410;28;20055;-75
2023/03/09 08:20:51;;;;;;;1999.90;999.90;;;;;;;11.90;100.00;96536.84;5090625;28;20056;-75
2023/03/09 08:23:17;;;;;;;1999.90;999.90;;;;;;;11.77;100.00;96546.97;5090516;28;20034;-77
2023/03/09 08:25:44;;;;;;;1999.90;999.90;;;;;;;11.74;100.00;96548.44;5091002;28;20032;-75
2023/03/09 08:28:11;;;;;;;1999.90;999.90;;;;;;;11.74;100.00;96558.59;5090858;28;20020;-75
2023/03/09 08:30:38;;;;;;;1999.90;999.90;;;;;;;11.75;100.00;96568.41;5090887;28;20023;-75
2023/03/09 08:33:09;;;;;;;1999.90;999.90;;;;;;;11.85;100.00;96561.69;5091568;28;20032;-74
2023/03/09 08:35:35;;;;;;;1999.90;999.90;;;;;;;11.98;100.00;96557.84;5094069;28;20032;-77
2023/03/09 08:38:00;;;;;;;1999.90;999.90;;;;;;;11.93;100.00;96560.81;5092883;28;20040;-77
2023/03/09 08:40:26;;;;;;;1999.90;999.90;;;;;;;12.09;100.00;96559.03;5088920;28;20036;-75
2023/03/09 08:42:52;;;;;;;1999.90;999.90;;;;;;;13.14;100.00;96555.44;5090680;28;20119;-76
2023/03/09 08:45:18;;;;;;;1999.90;999.90;;;;;;;14.28;100.00;96568.50;5089158;28;20443;-76
2023/03/09 08:47:43;;;;;;;1999.90;999.90;;;;;;;16.44;100.00;96576.91;5089251;28;20033;-74
2023/03/09 08:50:09;;;;;;;1999.90;999.90;;;;;;;16.64;100.00;96592.25;5090624;28;20071;-74
2023/03/09 08:52:37;;;;;;;1999.90;999.90;;;;;;;17.01;100.00;96590.53;5088922;28;20051;-76
2023/03/09 08:55:05;;;;;;;1999.90;999.90;;;;;;;16.69;100.00;96594.72;5089216;28;20031;-76
2023/03/09 08:57:31;;;;;;;1999.90;999.90;;;;;;;16.15;100.00;96592.13;5089074;28;20028;-76
2023/03/09 08:59:56;;;;;;;1999.90;999.90;;;;;;;15.02;100.00;96587.69;5088818;28;20370;-75
2023/03/09 09:02:22;;;;;;;1999.90;999.90;;;;;;;14.62;100.00;96586.28;5089571;28;20427;-74
2023/03/09 09:04:48;;;;;;;1999.90;999.90;;;;;;;14.30;100.00;96588.19;5089455;28;20454;-76
2023/03/09 09:07:15;;;;;;;1999.90;999.90;;;;;;;14.19;100.00;96596.13;5091048;28;20032;-76
2023/03/09 09:09:41;;;;;;;1999.90;999.90;;;;;;;13.55;100.00;96599.06;5090177;28;20039;-74
2023/03/09 09:12:08;;;;;;;1999.90;999.90;;;;;;;13.47;100.00;96586.22;5090133;28;20020;-75
2023/03/09 09:14:34;;;;;;;1999.90;999.90;;;;;;;13.61;100.00;96586.66;5090541;28;20024;-74
2023/03/09 09:17:01;;;;;;;1999.90;999.90;;;;;;;13.47;100.00;96580.75;5090389;28;20447;-76
2023/03/09 09:19:27;;;;;;;1999.90;999.90;;;;;;;13.49;100.00;96583.16;5091174;28;20028;-76
2023/03/09 09:21:54;;;;;;;1999.90;999.90;;;;;;;13.37;100.00;96589.50;5071875;28;20071;-76
2023/03/09 09:24:20;;;;;;;1999.90;999.90;;;;;;;13.36;100.00;96580.44;5070026;28;20055;-75
2023/03/09 09:26:45;;;;;;;1999.90;999.90;;;;;;;13.62;100.00;96544.31;5069751;28;20040;-76
2023/03/09 09:29:11;;;;;;;1999.90;999.90;;;;;;;14.28;100.00;96585.00;5069996;28;20060;-76
2023/03/09 09:31:38;;;;;;;1999.90;999.90;;;;;;;14.79;100.00;96592.22;5076823;28;20032;-75
2023/03/09 09:34:03;;;;;;;1999.90;999.90;;;;;;;14.42;100.00;96582.63;5093913;28;20336;-75
2023/03/09 09:36:29;;;;;;;1999.90;999.90;;;;;;;14.10;100.00;96569.94;5093267;28;20480;-75
2023/03/09 09:38:54;;;;;;;1999.90;999.90;;;;;;;14.24;100.00;96584.91;5094070;28;20020;-74
2023/03/09 09:41:27;;;;;;;1999.90;999.90;;;;;;;14.66;100.00;96587.97;5093786;28;20032;-75
2023/03/09 09:44:02;;;;;;;1999.90;999.90;;;;;;;14.40;100.00;96595.97;5093854;28;20024;-76
2023/03/09 09:46:31;;;;;;;1999.90;999.90;;;;;;;14.43;100.00;96587.81;5093753;28;20434;-75
2023/03/09 09:48:59;;;;;;;1999.90;999.90;;;;;;;13.88;100.00;96591.38;5093788;28;20035;-75
2023/03/09 09:51:38;;;;;;;1999.90;999.90;;;;;;;13.70;100.00;96584.56;5093541;28;20392;-75
2023/03/09 09:54:16;;;;;;;1999.90;999.90;;;;;;;13.71;100.00;96605.41;5093498;28;20081;-74
2023/03/09 09:56:55;;;;;;;1999.90;999.90;;;;;;;13.74;100.00;96590.97;5094298;28;20036;-74
2023/03/09 09:59:50;;;;;;;1999.90;999.90;;;;;;;13.96;100.00;96597.88;5094052;28;20435;-77
2023/03/09 10:02:46;;;;;;;1999.90;999.90;;;;;;;14.28;100.00;96604.25;5094504;28;20409;-74
2023/03/09 10:05:39;;;;;;;1999.90;999.90;;;;;;;14.23;100.00;96610.78;5098135;28;20039;-75
2023/03/09 10:08:38;;;;;;;1999.90;999.90;;;;;;;14.15;100.00;96610.97;5088153;28;20040;-76
2023/03/09 10:11:34;;;;;;;1999.90;999.90;;;;;;;14.04;100.00;96621.66;5092484;28;20147;-76
2023/03/09 10:14:11;;;;;;;1999.90;999.90;;;;;;;13.80;100.00;96625.31;5093064;28;20397;-76
2023/03/09 10:16:42;;;;;;;1999.90;999.90;;;;;;;13.43;100.00;96623.00;5093554;28;20056;-75
2023/03/09 10:19:15;;;;;;;1999.90;999.90;;;;;;;13.56;100.00;96630.88;5093268;28;20032;-76
2023/03/09 10:21:48;;;;;;;1999.90;999.90;;;;;;;13.51;100.00;96636.59;5093193;28;20032;-75
2023/03/09 10:24:21;;;;;;;1999.90;999.90;;;;;;;13.26;100.00;96643.28;5091420;28;20023;-76
2023/03/09 10:26:53;;;;;;;1999.90;999.90;;;;;;;13.10;100.00;96656.09;5092750;28;20039;-74
2023/03/09 10:29:47;;;;;;;1999.90;999.90;;;;;;;13.03;100.00;96658.59;5092972;28;20028;-75
2023/03/09 10:32:35;;;;;;;1999.90;999.90;;;;;;;13.08;100.00;96652.88;5084596;28;20545;-75
2023/03/09 10:35:36;;;;;;;1999.90;999.90;;;;;;;13.25;100.00;96660.91;5092987;28;20042;-76
2023/03/09 10:38:01;;;;;;;1999.90;999.90;;;;;;;13.44;100.00;96661.09;5093345;28;20035;-75
2023/03/09 10:40:30;;;;;;;1999.90;999.90;;;;;;;13.44;100.00;96663.84;5092069;28;20047;-75
2023/03/09 10:42:58;;;;;;;1999.90;999.90;;;;;;;13.47;100.00;96663.16;5096283;28;20038;-76
2023/03/09 10:45:29;;;;;;;1999.90;999.90;;;;;;;13.52;100.00;96667.63;5096473;28;20039;-74
2023/03/09 10:47:56;;;;;;;1999.90;999.90;;;;;;;13.46;100.00;96672.56;5092404;28;20051;-76
2023/03/09 10:51:14;;;;;;;1999.90;999.90;;;;;;;13.37;100.00;96674.63;5092349;28;20028;-74